createdAt,value
2018-05-03T00:00:13.134Z,14.27
2018-05-03T00:01:11.884Z,14.31
2018-05-03T00:02:11.878Z,14.39
2018-05-03T00:03:11.736Z,14.36
2018-05-03T00:04:11.693Z,14.36
2018-05-03T00:05:11.601Z,14.42
2018-05-03T00:06:11.611Z,14.35
2018-05-03T00:07:11.401Z,14.36
2018-05-03T00:08:11.407Z,14.36
2018-05-03T00:09:11.238Z,14.31
2018-05-03T00:10:11.208Z,14.24
2018-05-03T00:11:11.109Z,14.26
2018-05-03T00:13:53.046Z,14.38
2018-05-03T00:14:53.062Z,14.36
2018-05-03T00:15:52.899Z,14.30
2018-05-03T00:16:52.840Z,14.27
2018-05-03T00:17:52.728Z,14.21
2018-05-03T00:18:52.743Z,14.27
2018-05-03T00:19:52.583Z,14.34
2018-05-03T00:20:52.582Z,14.20
2018-05-03T00:21:52.402Z,14.34
2018-05-03T00:22:52.358Z,14.24
2018-05-03T00:23:52.247Z,14.30
2018-05-03T00:24:52.268Z,14.19
2018-05-03T00:25:52.125Z,14.16
2018-05-03T00:26:52.078Z,14.13
2018-05-03T00:27:51.927Z,14.12
2018-05-03T00:28:51.886Z,14.12
2018-05-03T00:29:51.780Z,14.19
2018-05-03T00:30:51.830Z,14.04
2018-05-03T00:31:51.611Z,14.02
2018-05-03T00:32:51.630Z,14.02
2018-05-03T00:33:51.458Z,14.06
2018-05-03T00:34:51.422Z,14.06
2018-05-03T00:35:51.325Z,14.09
2018-05-03T00:36:51.329Z,13.96
2018-05-03T00:37:51.142Z,14.04
2018-05-03T00:38:51.127Z,14.05
2018-05-03T00:39:50.977Z,13.93
2018-05-03T00:40:50.985Z,13.94
2018-05-03T00:41:50.955Z,13.99
2018-05-03T00:42:50.863Z,13.94
2018-05-03T00:43:50.664Z,13.91
2018-05-03T00:44:50.660Z,13.99
2018-05-03T00:45:50.506Z,13.84
2018-05-03T00:46:50.502Z,13.88
2018-05-03T00:47:50.354Z,13.79
2018-05-03T00:48:50.369Z,13.80
2018-05-03T00:49:50.195Z,13.72
2018-05-03T00:50:50.191Z,13.72
2018-05-03T00:51:50.054Z,13.73
2018-05-03T00:52:49.997Z,13.66
2018-05-03T00:53:49.871Z,13.62
2018-05-03T00:54:49.908Z,13.65
2018-05-03T00:55:49.723Z,13.61
2018-05-03T00:56:49.747Z,13.57
2018-05-03T00:57:49.579Z,13.53
2018-05-03T00:58:49.520Z,13.53
2018-05-03T00:59:49.448Z,13.47
2018-05-03T01:00:49.430Z,13.50
2018-05-03T01:01:49.239Z,13.48
2018-05-03T01:02:49.277Z,13.51
2018-05-03T01:03:49.091Z,13.44
2018-05-03T01:04:49.050Z,13.47
2018-05-03T01:05:48.925Z,13.38
2018-05-03T01:06:48.963Z,13.44
2018-05-03T01:07:48.797Z,13.44
2018-05-03T01:08:48.772Z,13.44
2018-05-03T01:09:48.606Z,13.44
2018-05-03T01:10:48.580Z,13.44
2018-05-03T01:11:48.442Z,13.41
2018-05-03T01:12:48.417Z,13.38
2018-05-03T01:13:48.300Z,13.32
2018-05-03T01:16:30.562Z,13.25
2018-05-03T01:17:30.536Z,13.24
2018-05-03T01:18:30.417Z,13.07
2018-05-03T01:19:30.418Z,13.14
2018-05-03T01:20:30.239Z,13.13
2018-05-03T01:21:30.220Z,13.14
2018-05-03T01:22:30.075Z,13.13
2018-05-03T01:23:30.094Z,13.03
2018-05-03T01:24:29.920Z,13.21
2018-05-03T01:25:29.931Z,13.19
2018-05-03T01:26:29.752Z,13.24
2018-05-03T01:27:29.738Z,13.13
2018-05-03T01:28:29.620Z,13.09
2018-05-03T01:29:29.552Z,13.01
2018-05-03T01:30:29.443Z,13.19
2018-05-03T01:31:29.466Z,13.10
2018-05-03T01:32:29.286Z,13.12
2018-05-03T01:33:29.278Z,13.04
2018-05-03T01:34:29.150Z,13.03
2018-05-03T01:35:29.095Z,13.12
2018-05-03T01:36:28.972Z,13.13
2018-05-03T01:37:29.000Z,13.10
2018-05-03T01:38:28.843Z,12.96
2018-05-03T01:39:28.795Z,13.12
2018-05-03T01:40:28.647Z,13.09
2018-05-03T01:43:10.560Z,12.95
2018-05-03T01:44:11.555Z,12.99
2018-05-03T01:45:10.410Z,12.87
2018-05-03T01:46:10.420Z,12.85
2018-05-03T01:47:10.240Z,12.98
2018-05-03T01:48:10.223Z,12.95
2018-05-03T01:49:10.095Z,12.92
2018-05-03T01:50:10.032Z,12.87
2018-05-03T01:51:09.934Z,12.98
2018-05-03T01:52:10.046Z,12.89
2018-05-03T01:53:09.773Z,12.99
2018-05-03T01:54:10.822Z,12.92
2018-05-03T01:55:09.633Z,12.96
2018-05-03T01:57:51.553Z,12.95
2018-05-03T02:00:33.670Z,12.84
2018-05-03T02:01:33.556Z,12.87
2018-05-03T02:02:33.410Z,12.81
2018-05-03T02:03:33.360Z,12.70
2018-05-03T02:04:33.241Z,12.84
2018-05-03T02:05:33.310Z,12.71
2018-05-03T02:06:33.079Z,12.71
2018-05-03T02:07:33.088Z,12.81
2018-05-03T02:08:32.926Z,12.69
2018-05-03T02:09:32.887Z,12.70
2018-05-03T02:10:32.791Z,12.77
2018-05-03T02:11:32.842Z,12.77
2018-05-03T02:12:32.606Z,12.77
2018-05-03T02:15:14.559Z,12.80
2018-05-03T02:16:14.543Z,12.76
2018-05-03T02:17:14.411Z,12.63
2018-05-03T02:18:14.420Z,12.70
2018-05-03T02:19:14.246Z,12.67
2018-05-03T02:20:14.222Z,12.74
2018-05-03T02:21:14.122Z,12.69
2018-05-03T02:22:14.138Z,12.62
2018-05-03T02:23:13.925Z,12.77
2018-05-03T02:24:13.938Z,12.66
2018-05-03T02:25:13.781Z,12.74
2018-05-03T02:26:13.764Z,12.66
2018-05-03T02:27:13.645Z,12.71
2018-05-03T02:28:13.556Z,12.74
2018-05-03T02:29:13.449Z,12.76
2018-05-03T02:30:13.481Z,12.66
2018-05-03T02:31:13.290Z,12.70
2018-05-03T02:32:13.312Z,12.77
2018-05-03T02:33:13.153Z,12.70
2018-05-03T02:35:55.068Z,12.66
2018-05-03T02:36:56.039Z,12.73
2018-05-03T02:37:54.908Z,12.69
2018-05-03T02:40:37.073Z,12.58
2018-05-03T02:41:37.098Z,12.52
2018-05-03T02:42:37.071Z,12.61
2018-05-03T02:43:36.902Z,12.59
2018-05-03T02:44:36.748Z,12.59
2018-05-03T02:45:36.709Z,12.51
2018-05-03T02:46:36.595Z,12.49
2018-05-03T02:47:37.583Z,12.51
2018-05-03T02:48:36.439Z,12.48
2018-05-03T02:49:36.359Z,12.48
2018-05-03T02:50:36.296Z,12.41
2018-05-03T02:51:36.249Z,12.40
2018-05-03T02:52:36.139Z,12.41
2018-05-03T02:53:36.166Z,12.36
2018-05-03T02:54:35.958Z,12.37
2018-05-03T02:57:18.082Z,12.31
2018-05-03T02:58:19.143Z,12.26
2018-05-03T02:59:17.935Z,12.26
2018-05-03T03:00:17.892Z,12.25
2018-05-03T03:01:17.762Z,12.31
2018-05-03T03:02:17.792Z,12.26
2018-05-03T03:03:17.621Z,12.29
2018-05-03T03:04:17.584Z,12.29
2018-05-03T03:05:17.444Z,12.34
2018-05-03T03:07:59.587Z,12.29
2018-05-03T03:08:59.633Z,12.30
2018-05-03T03:09:59.418Z,12.26
2018-05-03T03:10:59.397Z,12.30
2018-05-03T03:11:59.251Z,12.31
2018-05-03T03:12:59.207Z,12.33
2018-05-03T03:13:59.110Z,12.25
2018-05-03T03:14:59.122Z,12.30
2018-05-03T03:15:58.943Z,12.25
2018-05-03T03:18:41.099Z,12.36
2018-05-03T03:19:41.057Z,12.30
2018-05-03T03:20:40.986Z,12.25
2018-05-03T03:21:40.972Z,12.31
2018-05-03T03:22:40.772Z,12.21
2018-05-03T03:23:40.754Z,12.30
2018-05-03T03:24:40.623Z,12.25
2018-05-03T03:25:40.566Z,12.22
2018-05-03T03:26:40.443Z,12.19
2018-05-03T03:27:40.496Z,12.25
2018-05-03T03:28:40.283Z,12.12
2018-05-03T03:29:40.313Z,12.11
2018-05-03T03:30:40.127Z,12.19
2018-05-03T03:33:22.078Z,12.19
2018-05-03T03:34:22.081Z,12.16
2018-05-03T03:35:22.088Z,12.16
2018-05-03T03:38:04.079Z,12.13
2018-05-03T03:39:04.099Z,12.15
2018-05-03T03:40:03.940Z,12.18
2018-05-03T03:41:03.931Z,12.16
2018-05-03T03:42:03.769Z,12.04
2018-05-03T03:44:45.590Z,12.11
2018-05-03T03:45:46.563Z,11.96
2018-05-03T03:46:45.427Z,12.07
2018-05-03T03:47:45.421Z,12.11
2018-05-03T03:48:45.261Z,12.15
2018-05-03T03:49:45.218Z,12.03
2018-05-03T03:50:45.123Z,12.08
2018-05-03T03:51:45.139Z,11.98
2018-05-03T03:52:44.949Z,11.94
2018-05-03T03:53:44.945Z,11.87
2018-05-03T03:54:44.786Z,11.88
2018-05-03T03:55:45.813Z,11.81
2018-05-03T03:56:44.735Z,11.79
2018-05-03T03:57:44.664Z,11.82
2018-05-03T03:58:44.466Z,11.69
2018-05-03T03:59:44.477Z,11.70
2018-05-03T04:00:44.313Z,11.67
2018-05-03T04:01:44.310Z,11.77
2018-05-03T04:02:44.149Z,11.69
2018-05-03T04:05:26.090Z,11.70
2018-05-03T04:06:27.151Z,11.77
2018-05-03T04:07:25.959Z,11.75
2018-05-03T04:10:08.094Z,11.63
2018-05-03T04:12:50.129Z,11.69
2018-05-03T04:15:32.090Z,11.49
2018-05-03T04:16:32.093Z,11.49
2018-05-03T04:17:31.945Z,11.41
2018-05-03T04:18:31.907Z,11.44
2018-05-03T04:19:31.764Z,11.51
2018-05-03T04:20:31.810Z,11.46
2018-05-03T04:21:31.605Z,11.45
2018-05-03T04:22:32.775Z,11.45
2018-05-03T04:23:31.455Z,11.53
2018-05-03T04:26:13.595Z,11.44
2018-05-03T04:27:13.566Z,11.48
2018-05-03T04:28:13.454Z,11.36
2018-05-03T04:29:13.438Z,11.35
2018-05-03T04:30:13.262Z,11.30
2018-05-03T04:31:13.244Z,11.20
2018-05-03T04:32:13.125Z,11.17
2018-05-03T04:33:14.074Z,11.11
2018-05-03T04:34:12.973Z,11.21
2018-05-03T04:36:55.110Z,11.24
2018-05-03T04:37:55.073Z,11.24
2018-05-03T04:38:54.957Z,11.08
2018-05-03T04:39:54.982Z,11.09
2018-05-03T04:40:54.778Z,11.13
2018-05-03T04:41:54.697Z,11.16
2018-05-03T04:42:54.607Z,11.16
2018-05-03T04:43:54.562Z,11.08
2018-05-03T04:44:54.447Z,11.09
2018-05-03T04:45:54.375Z,11.08
2018-05-03T04:46:54.412Z,11.08
2018-05-03T04:47:54.314Z,11.09
2018-05-03T04:48:54.159Z,11.19
2018-05-03T04:51:36.107Z,11.12
2018-05-03T04:52:36.128Z,11.20
2018-05-03T04:53:35.947Z,11.20
2018-05-03T04:54:36.988Z,11.19
2018-05-03T04:55:35.790Z,11.27
2018-05-03T04:56:35.807Z,11.23
2018-05-03T04:57:35.628Z,11.24
2018-05-03T04:58:35.643Z,11.23
2018-05-03T04:59:35.500Z,11.21
2018-05-03T05:00:35.447Z,11.28
2018-05-03T05:01:35.320Z,11.38
2018-05-03T05:04:17.631Z,11.35
2018-05-03T05:05:17.596Z,11.36
2018-05-03T05:06:17.456Z,11.41
2018-05-03T05:07:17.488Z,11.39
2018-05-03T05:08:17.335Z,11.44
2018-05-03T05:09:17.281Z,11.54
2018-05-03T05:10:17.146Z,11.54
2018-05-03T05:11:17.098Z,11.66
2018-05-03T05:12:16.967Z,11.60
2018-05-03T05:13:17.007Z,11.64
2018-05-03T05:14:16.804Z,11.64
2018-05-03T05:15:16.851Z,11.69
2018-05-03T05:16:16.674Z,11.66
2018-05-03T05:17:16.641Z,11.78
2018-05-03T05:18:16.485Z,11.75
2018-05-03T05:20:58.690Z,11.74
2018-05-03T05:21:58.810Z,11.77
2018-05-03T05:22:58.478Z,11.79
2018-05-03T05:23:58.434Z,11.67
2018-05-03T05:24:58.289Z,11.63
2018-05-03T05:25:58.297Z,11.82
2018-05-03T05:26:58.133Z,11.82
2018-05-03T05:27:58.150Z,11.79
2018-05-03T05:28:57.968Z,11.84
2018-05-03T05:29:57.976Z,11.90
2018-05-03T05:30:57.817Z,11.98
2018-05-03T05:31:57.774Z,12.03
2018-05-03T05:32:57.652Z,12.13
2018-05-03T05:33:57.687Z,12.05
2018-05-03T05:34:57.483Z,12.12
2018-05-03T05:35:57.542Z,12.23
2018-05-03T05:36:57.361Z,12.25
2018-05-03T05:37:57.303Z,12.23
2018-05-03T05:38:57.258Z,12.29
2018-05-03T05:39:57.221Z,12.30
2018-05-03T05:40:57.023Z,12.36
2018-05-03T05:41:57.036Z,12.43
2018-05-03T05:42:56.852Z,12.46
2018-05-03T05:43:56.777Z,12.49
2018-05-03T05:44:56.700Z,12.55
2018-05-03T05:45:57.703Z,12.59
2018-05-03T05:46:56.523Z,12.58
2018-05-03T05:47:57.509Z,12.59
2018-05-03T05:48:56.368Z,12.62
2018-05-03T05:51:38.620Z,12.56
2018-05-03T05:52:38.609Z,12.66
2018-05-03T05:53:38.470Z,12.73
2018-05-03T05:56:20.612Z,12.81
2018-05-03T05:57:20.633Z,12.92
2018-05-03T05:58:20.450Z,12.95
2018-05-03T05:59:20.485Z,12.94
2018-05-03T06:00:20.286Z,13.36
2018-05-03T06:03:02.145Z,14.64
2018-05-03T06:04:02.089Z,14.74
2018-05-03T06:05:01.960Z,15.34
2018-05-03T06:06:01.996Z,14.95
2018-05-03T06:07:01.810Z,14.64
2018-05-03T06:08:01.839Z,14.61
2018-05-03T06:09:01.648Z,15.13
2018-05-03T06:11:43.621Z,15.78
2018-05-03T06:12:43.651Z,16.06
2018-05-03T06:13:43.452Z,15.95
2018-05-03T06:16:25.665Z,16.42
2018-05-03T06:17:25.599Z,16.01
2018-05-03T06:18:25.475Z,15.88
2018-05-03T06:19:25.429Z,15.43
2018-05-03T06:20:25.303Z,15.33
2018-05-03T06:21:25.340Z,15.22
2018-05-03T06:22:25.142Z,16.04
2018-05-03T06:23:25.193Z,16.98
2018-05-03T06:24:25.018Z,17.66
2018-05-03T06:25:24.955Z,18.09
2018-05-03T06:26:24.829Z,17.73
2018-05-03T06:27:24.864Z,17.66
2018-05-03T06:28:24.670Z,17.20
2018-05-03T06:29:24.713Z,16.72
2018-05-03T06:30:24.514Z,16.65
2018-05-03T06:31:24.500Z,16.59
2018-05-03T06:32:24.389Z,16.82
2018-05-03T06:33:24.405Z,16.95
2018-05-03T06:34:24.893Z,16.52
2018-05-03T06:35:24.216Z,16.41
2018-05-03T06:36:24.043Z,16.95
2018-05-03T06:39:06.154Z,17.32
2018-05-03T06:40:06.104Z,17.43
2018-05-03T06:41:06.006Z,17.05
2018-05-03T06:42:05.929Z,16.62
2018-05-03T06:43:05.820Z,16.82
2018-05-03T06:44:05.841Z,16.85
2018-05-03T06:45:05.667Z,16.48
2018-05-03T06:46:06.703Z,16.34
2018-05-03T06:47:05.507Z,16.67
2018-05-03T06:48:05.508Z,16.37
2018-05-03T06:49:05.367Z,16.65
2018-05-03T06:51:47.661Z,17.81
2018-05-03T06:52:47.662Z,18.29
2018-05-03T06:53:47.467Z,18.32
2018-05-03T06:54:47.485Z,17.96
2018-05-03T06:55:47.365Z,17.95
2018-05-03T06:56:47.272Z,17.49
2018-05-03T06:57:47.164Z,18.07
2018-05-03T06:58:47.202Z,18.51
2018-05-03T06:59:47.016Z,18.79
2018-05-03T07:00:47.042Z,18.68
2018-05-03T07:01:46.855Z,18.59
2018-05-03T07:04:29.232Z,18.54
2018-05-03T07:05:29.151Z,18.09
2018-05-03T07:06:28.982Z,17.92
2018-05-03T07:07:29.037Z,17.95
2018-05-03T07:08:28.832Z,17.17
2018-05-03T07:11:11.175Z,16.99
2018-05-03T07:12:11.204Z,17.06
2018-05-03T07:13:11.015Z,17.95
2018-05-03T07:14:10.995Z,18.29
2018-05-03T07:15:10.869Z,18.64
2018-05-03T07:16:10.897Z,18.56
2018-05-03T07:17:10.683Z,18.74
2018-05-03T07:18:10.610Z,18.69
2018-05-03T07:19:10.536Z,18.59
2018-05-03T07:20:10.458Z,18.54
2018-05-03T07:21:10.428Z,18.71
2018-05-03T07:22:10.300Z,19.25
2018-05-03T07:23:10.223Z,19.24
2018-05-03T07:24:10.175Z,18.82
2018-05-03T07:25:10.061Z,18.66
2018-05-03T07:26:10.027Z,18.97
2018-05-03T07:27:09.907Z,19.12
2018-05-03T07:28:09.844Z,19.35
2018-05-03T07:29:09.761Z,19.64
2018-05-03T07:30:09.693Z,19.24
2018-05-03T07:31:09.625Z,19.61
2018-05-03T07:33:51.637Z,19.28
2018-05-03T07:34:51.639Z,19.47
2018-05-03T07:35:51.493Z,19.34
2018-05-03T07:36:52.446Z,18.44
2018-05-03T07:37:51.341Z,18.23
2018-05-03T07:38:51.301Z,18.16
2018-05-03T07:39:51.189Z,18.84
2018-05-03T07:40:51.173Z,18.60
2018-05-03T07:41:51.051Z,19.15
2018-05-03T07:42:51.017Z,19.58
2018-05-03T07:43:50.901Z,20.05
2018-05-03T07:46:33.182Z,20.26
2018-05-03T07:47:33.090Z,19.65
2018-05-03T07:48:33.039Z,20.08
2018-05-03T07:49:32.952Z,19.80
2018-05-03T07:50:32.940Z,19.47
2018-05-03T07:51:32.898Z,19.23
2018-05-03T07:52:32.722Z,19.17
2018-05-03T07:53:32.629Z,19.72
2018-05-03T07:54:32.549Z,20.23
2018-05-03T07:57:14.679Z,20.51
2018-05-03T07:58:14.612Z,19.90
2018-05-03T07:59:14.511Z,20.26
2018-05-03T08:00:14.453Z,20.76
2018-05-03T08:01:14.405Z,20.51
2018-05-03T08:02:14.318Z,20.37
2018-05-03T08:03:14.237Z,20.46
2018-05-03T08:04:14.157Z,19.67
2018-05-03T08:05:14.070Z,19.09
2018-05-03T08:06:14.060Z,19.76
2018-05-03T08:07:13.950Z,20.25
2018-05-03T08:08:14.874Z,20.61
2018-05-03T08:09:13.773Z,19.12
2018-05-03T08:10:13.694Z,19.12
2018-05-03T08:11:13.633Z,18.54
2018-05-03T08:12:13.546Z,18.44
2018-05-03T08:13:13.492Z,17.70
2018-05-03T08:14:13.397Z,17.99
2018-05-03T08:15:13.364Z,17.94
2018-05-03T08:16:13.261Z,18.01
2018-05-03T08:17:13.213Z,18.51
2018-05-03T08:19:55.197Z,18.23
2018-05-03T08:20:55.097Z,19.10
2018-05-03T08:21:55.026Z,19.10
2018-05-03T08:22:54.946Z,18.89
2018-05-03T08:23:54.884Z,18.68
2018-05-03T08:26:37.192Z,19.24
2018-05-03T08:29:19.183Z,18.74
2018-05-03T08:30:19.117Z,19.65
2018-05-03T08:31:19.016Z,20.05
2018-05-03T08:32:19.018Z,20.58
2018-05-03T08:33:18.881Z,21.48
2018-05-03T08:34:19.819Z,21.82
2018-05-03T08:35:18.740Z,21.70
2018-05-03T08:38:00.664Z,20.83
2018-05-03T08:39:00.599Z,20.83
2018-05-03T08:40:00.569Z,20.78
2018-05-03T08:41:00.455Z,20.35
2018-05-03T08:42:00.384Z,18.90
2018-05-03T08:43:00.310Z,18.34
2018-05-03T08:44:00.277Z,18.62
2018-05-03T08:45:00.192Z,19.07
2018-05-03T08:46:00.124Z,19.61
2018-05-03T08:48:42.185Z,20.12
2018-05-03T08:49:43.152Z,19.80
2018-05-03T08:50:42.017Z,19.87
2018-05-03T08:51:41.974Z,19.92
2018-05-03T08:52:41.902Z,19.97
2018-05-03T08:53:41.806Z,20.34
2018-05-03T08:54:41.753Z,21.24
2018-05-03T08:57:23.693Z,22.27
2018-05-03T08:58:23.611Z,21.75
2018-05-03T08:59:23.536Z,21.27
2018-05-03T09:00:24.492Z,20.63
2018-05-03T09:01:23.419Z,20.19
2018-05-03T09:04:05.683Z,19.47
2018-05-03T09:05:05.649Z,19.67
2018-05-03T09:06:05.530Z,19.57
2018-05-03T09:07:05.497Z,19.35
2018-05-03T09:08:05.395Z,19.95
2018-05-03T09:09:05.325Z,20.88
2018-05-03T09:10:05.272Z,20.97
2018-05-03T09:11:05.201Z,21.58
2018-05-03T09:12:05.107Z,21.55
2018-05-03T09:14:47.183Z,21.16
2018-05-03T09:15:47.151Z,20.27
2018-05-03T09:16:47.046Z,19.46
2018-05-03T09:17:46.992Z,19.31
2018-05-03T09:18:46.900Z,19.32
2018-05-03T09:21:29.212Z,19.13
2018-05-03T09:24:11.201Z,20.30
2018-05-03T09:25:11.141Z,20.61
2018-05-03T09:26:11.073Z,20.82
2018-05-03T09:27:10.992Z,21.18
2018-05-03T09:28:10.910Z,21.58
2018-05-03T09:29:10.843Z,21.22
2018-05-03T09:30:10.755Z,21.21
2018-05-03T09:31:10.734Z,21.52
2018-05-03T09:32:10.623Z,20.91
2018-05-03T09:33:10.566Z,20.71
2018-05-03T09:34:10.473Z,21.38
2018-05-03T09:35:10.411Z,21.66
2018-05-03T09:36:10.360Z,22.30
2018-05-03T09:37:10.272Z,22.57
2018-05-03T09:38:10.184Z,21.42
2018-05-03T09:40:52.196Z,22.35
2018-05-03T09:41:52.195Z,22.52
2018-05-03T09:42:52.051Z,22.08
2018-05-03T09:45:34.188Z,21.90
2018-05-03T09:46:34.164Z,21.98
2018-05-03T09:47:34.066Z,21.82
2018-05-03T09:50:16.188Z,19.86
2018-05-03T09:51:16.278Z,18.91
2018-05-03T09:52:16.104Z,19.28
2018-05-03T09:53:16.107Z,19.76
2018-05-03T09:54:15.907Z,20.23
2018-05-03T09:55:15.898Z,20.64
2018-05-03T09:56:15.771Z,21.63
2018-05-03T09:57:15.762Z,21.21
2018-05-03T09:58:15.639Z,20.72
2018-05-03T09:59:15.603Z,20.69
2018-05-03T10:00:15.485Z,19.97
2018-05-03T10:02:57.721Z,20.26
2018-05-03T10:05:39.701Z,20.50
2018-05-03T10:06:40.697Z,20.31
2018-05-03T10:07:39.643Z,20.54
2018-05-03T10:08:39.556Z,21.31
2018-05-03T10:09:39.410Z,21.96
2018-05-03T10:12:21.733Z,21.16
2018-05-03T10:13:21.798Z,20.93
2018-05-03T10:14:21.575Z,21.21
2018-05-03T10:17:03.844Z,22.66
2018-05-03T10:18:03.734Z,22.20
2018-05-03T10:19:03.573Z,22.29
2018-05-03T10:20:03.609Z,21.89
2018-05-03T10:21:03.431Z,20.66
2018-05-03T10:22:03.482Z,19.97
2018-05-03T10:23:03.335Z,20.54
2018-05-03T10:24:03.282Z,20.87
2018-05-03T10:25:03.135Z,21.21
2018-05-03T10:26:03.080Z,21.79
2018-05-03T10:27:02.999Z,22.30
2018-05-03T10:28:02.952Z,22.66
2018-05-03T10:29:03.019Z,22.99
2018-05-03T10:30:02.897Z,22.97
2018-05-03T10:31:02.728Z,22.72
2018-05-03T10:33:44.737Z,22.76
2018-05-03T10:36:26.733Z,20.15
2018-05-03T10:39:08.735Z,20.58
2018-05-03T10:41:50.714Z,20.82
2018-05-03T10:42:50.921Z,20.97
2018-05-03T10:43:50.598Z,20.44
2018-05-03T10:44:50.516Z,19.90
2018-05-03T10:45:50.709Z,19.78
2018-05-03T10:46:50.439Z,19.89
2018-05-03T10:47:50.333Z,19.25
2018-05-03T10:48:50.872Z,19.39
2018-05-03T10:49:50.405Z,19.43
2018-05-03T10:50:50.850Z,20.51
2018-05-03T10:51:50.026Z,21.30
2018-05-03T10:52:49.947Z,21.79
2018-05-03T10:53:49.903Z,21.99
2018-05-03T10:54:52.097Z,22.27
2018-05-03T10:55:49.752Z,23.21
2018-05-03T10:56:49.776Z,23.72
2018-05-03T10:57:49.610Z,23.75
2018-05-03T10:58:52.510Z,23.56
2018-05-03T10:59:49.516Z,23.21
2018-05-03T11:02:31.714Z,23.22
2018-05-03T11:03:31.690Z,22.78
2018-05-03T11:04:31.653Z,23.39
2018-05-03T11:05:31.715Z,22.44
2018-05-03T11:06:31.528Z,22.02
2018-05-03T11:09:13.744Z,20.91
2018-05-03T11:10:13.731Z,21.30
2018-05-03T11:11:13.685Z,22.54
2018-05-03T11:12:13.651Z,22.96
2018-05-03T11:13:13.534Z,22.02
2018-05-03T11:14:13.491Z,21.53
2018-05-03T11:15:13.318Z,21.75
2018-05-03T11:16:13.372Z,21.86
2018-05-03T11:17:13.182Z,21.81
2018-05-03T11:18:13.117Z,21.74
2018-05-03T11:19:13.039Z,21.68
2018-05-03T11:20:13.127Z,20.97
2018-05-03T11:21:12.896Z,20.68
2018-05-03T11:22:12.898Z,20.98
2018-05-03T11:23:12.787Z,21.18
2018-05-03T11:24:12.739Z,21.42
2018-05-03T11:25:12.675Z,21.22
2018-05-03T11:26:12.623Z,21.40
2018-05-03T11:27:12.523Z,22.02
2018-05-03T11:28:12.428Z,22.15
2018-05-03T11:29:12.344Z,22.08
2018-05-03T11:30:12.354Z,21.96
2018-05-03T11:31:12.216Z,21.40
2018-05-03T11:32:12.236Z,21.56
2018-05-03T11:33:12.093Z,21.48
2018-05-03T11:34:12.069Z,20.83
2018-05-03T11:35:11.946Z,20.04
2018-05-03T11:36:12.992Z,20.27
2018-05-03T11:37:11.787Z,20.64
2018-05-03T11:38:11.768Z,20.78
2018-05-03T11:39:11.868Z,21.03
2018-05-03T11:40:11.692Z,21.83
2018-05-03T11:41:11.529Z,22.05
2018-05-03T11:42:11.489Z,22.04
2018-05-03T11:43:11.480Z,22.06
2018-05-03T11:45:53.530Z,19.80
2018-05-03T11:46:53.503Z,19.55
2018-05-03T11:47:53.533Z,19.68
2018-05-03T11:50:35.267Z,19.34
2018-05-03T11:51:35.205Z,19.60
2018-05-03T11:52:35.138Z,19.92
2018-05-03T11:53:35.127Z,19.35
2018-05-03T11:54:34.945Z,19.78
2018-05-03T11:55:34.956Z,19.89
2018-05-03T11:56:34.825Z,20.30
2018-05-03T11:59:16.833Z,18.91
2018-05-03T12:00:16.722Z,18.75
2018-05-03T12:01:16.630Z,18.74
2018-05-03T12:02:16.640Z,18.59
2018-05-03T12:03:16.496Z,18.51
2018-05-03T12:04:16.449Z,18.57
2018-05-03T12:05:16.352Z,18.97
2018-05-03T12:06:16.286Z,19.21
2018-05-03T12:07:16.157Z,19.31
2018-05-03T12:08:16.162Z,18.97
2018-05-03T12:09:16.003Z,19.12
2018-05-03T12:10:15.975Z,19.09
2018-05-03T12:11:15.934Z,19.24
2018-05-03T12:12:15.834Z,19.15
2018-05-03T12:13:15.702Z,19.02
2018-05-03T12:14:15.636Z,18.90
2018-05-03T12:15:15.550Z,19.01
2018-05-03T12:16:15.487Z,19.28
2018-05-03T12:17:15.416Z,19.49
2018-05-03T12:18:15.419Z,19.57
2018-05-03T12:19:15.258Z,19.62
2018-05-03T12:21:57.338Z,19.67
2018-05-03T12:22:57.208Z,19.72
2018-05-03T12:23:57.159Z,19.94
2018-05-03T12:24:59.380Z,19.71
2018-05-03T12:25:56.955Z,19.70
2018-05-03T12:26:56.929Z,19.82
2018-05-03T12:27:56.804Z,20.08
2018-05-03T12:30:42.783Z,19.55
2018-05-03T12:31:42.773Z,18.93
2018-05-03T12:32:42.619Z,18.79
2018-05-03T12:33:42.654Z,18.87
2018-05-03T12:34:42.451Z,19.07
2018-05-03T12:35:42.460Z,19.01
2018-05-03T12:36:42.296Z,18.97
2018-05-03T12:37:42.299Z,19.05
2018-05-03T12:38:42.156Z,19.12
2018-05-03T12:39:43.149Z,19.20
2018-05-03T12:40:42.019Z,19.15
2018-05-03T12:41:42.007Z,18.75
2018-05-03T12:42:41.842Z,18.82
2018-05-03T12:43:41.794Z,18.90
2018-05-03T12:44:41.724Z,19.13
2018-05-03T12:45:41.620Z,18.91
2018-05-03T12:46:41.551Z,19.17
2018-05-03T12:47:42.501Z,19.10
2018-05-03T12:48:41.376Z,19.32
2018-05-03T12:49:41.323Z,18.90
2018-05-03T12:50:41.251Z,19.10
2018-05-03T12:51:41.308Z,18.84
2018-05-03T12:52:41.103Z,17.73
2018-05-03T12:53:41.006Z,17.79
2018-05-03T12:54:40.980Z,18.07
2018-05-03T12:55:41.012Z,18.23
2018-05-03T12:56:40.785Z,18.39
2018-05-03T12:57:40.801Z,18.60
2018-05-03T12:58:40.647Z,18.44
2018-05-03T12:59:40.679Z,18.17
2018-05-03T13:00:40.526Z,18.31
2018-05-03T13:01:40.495Z,18.47
2018-05-03T13:02:40.327Z,18.11
2018-05-03T13:03:41.367Z,18.34
2018-05-03T13:04:40.160Z,18.53
2018-05-03T13:05:40.237Z,18.68
2018-05-03T13:06:40.042Z,18.65
2018-05-03T13:07:40.040Z,18.56
2018-05-03T13:08:39.856Z,18.50
2018-05-03T13:11:21.776Z,18.09
2018-05-03T13:12:21.739Z,18.09
2018-05-03T13:13:21.645Z,18.23
2018-05-03T13:14:21.580Z,18.66
2018-05-03T13:15:21.456Z,18.71
2018-05-03T13:16:21.430Z,18.69
2018-05-03T13:17:21.311Z,18.84
2018-05-03T13:18:21.349Z,19.07
2018-05-03T13:19:21.210Z,19.15
2018-05-03T13:22:03.295Z,19.50
2018-05-03T13:23:03.769Z,19.49
2018-05-03T13:24:03.146Z,19.46
2018-05-03T13:25:03.926Z,18.71
2018-05-03T13:26:02.974Z,18.84
2018-05-03T13:27:02.903Z,18.87
2018-05-03T13:28:02.835Z,18.82
2018-05-03T13:29:03.261Z,18.87
2018-05-03T13:30:02.700Z,18.74
2018-05-03T13:32:44.786Z,18.62
2018-05-03T13:33:44.841Z,18.65
2018-05-03T13:34:44.647Z,18.60
2018-05-03T13:35:44.557Z,18.41
2018-05-03T13:36:44.491Z,18.35
2018-05-03T13:37:44.419Z,18.25
2018-05-03T13:38:44.357Z,18.41
2018-05-03T13:39:44.385Z,18.26
2018-05-03T13:40:44.183Z,18.54
2018-05-03T13:41:44.133Z,18.62
2018-05-03T13:42:44.016Z,18.74
2018-05-03T13:43:44.047Z,18.89
2018-05-03T13:44:44.170Z,18.56
2018-05-03T13:45:43.809Z,18.62
2018-05-03T13:46:44.096Z,18.82
2018-05-03T13:49:25.788Z,18.96
2018-05-03T13:50:26.802Z,18.64
2018-05-03T13:51:25.716Z,18.65
2018-05-03T13:52:25.651Z,18.75
2018-05-03T13:53:25.516Z,18.71
2018-05-03T13:54:25.497Z,18.41
2018-05-03T13:55:25.355Z,18.39
2018-05-03T13:58:07.295Z,18.66
2018-05-03T13:59:07.231Z,18.72
2018-05-03T14:00:07.184Z,18.90
2018-05-03T14:01:07.092Z,18.71
2018-05-03T14:02:06.997Z,18.64
2018-05-03T14:04:49.296Z,18.53
2018-05-03T14:05:49.377Z,18.41
2018-05-03T14:06:49.160Z,18.65
2018-05-03T14:07:49.115Z,18.82
2018-05-03T14:08:48.973Z,19.15
2018-05-03T14:11:31.318Z,19.30
2018-05-03T14:12:31.347Z,19.10
2018-05-03T14:13:31.151Z,19.13
2018-05-03T14:14:31.138Z,19.21
2018-05-03T14:15:31.011Z,19.12
2018-05-03T14:16:30.975Z,18.90
2018-05-03T14:17:30.869Z,18.97
2018-05-03T14:18:30.840Z,18.99
2018-05-03T14:19:30.664Z,18.87
2018-05-03T14:20:30.669Z,18.82
2018-05-03T14:21:30.539Z,18.69
2018-05-03T14:22:30.709Z,18.87
2018-05-03T14:23:30.366Z,18.84
2018-05-03T14:24:30.383Z,18.62
2018-05-03T14:25:30.206Z,18.62
2018-05-03T14:26:30.155Z,18.39
2018-05-03T14:27:30.091Z,18.25
2018-05-03T14:28:30.133Z,18.44
2018-05-03T14:29:29.910Z,18.59
2018-05-03T14:30:29.909Z,18.56
2018-05-03T14:31:29.746Z,18.62
2018-05-03T14:32:29.721Z,18.87
2018-05-03T14:33:29.624Z,18.97
2018-05-03T14:36:11.830Z,18.57
2018-05-03T14:37:11.826Z,18.25
2018-05-03T14:38:11.701Z,18.47
2018-05-03T14:39:12.697Z,18.53
2018-05-03T14:40:11.509Z,18.71
2018-05-03T14:41:11.437Z,18.74
2018-05-03T14:42:11.341Z,18.79
2018-05-03T14:43:11.354Z,18.71
2018-05-03T14:44:11.225Z,18.62
2018-05-03T14:45:11.174Z,18.76
2018-05-03T14:46:11.031Z,18.78
2018-05-03T14:47:11.099Z,18.79
2018-05-03T14:48:10.892Z,18.76
2018-05-03T14:49:10.820Z,18.66
2018-05-03T14:50:10.756Z,18.62
2018-05-03T14:52:52.798Z,18.53
2018-05-03T14:53:52.804Z,18.41